Time;durP1;ratioP1;P1;durP2;ratioP2;P2;SDS_P1;SDS_P2;PMS_P1;PMS_P2;Temp;Humidity;BMP_temperature;BMP_pressure;BME280_temperature;BME280_humidity;BME280_pressure;Samples;Min_cycle;Max_cycle;Signal;HPM_P1;HPM_P2
2021/09/12 00:04:09;;;;;;;2.07;1.77;;;20.40;73.30;;;;;;10451563;28;20217;-64
2021/09/12 00:09:31;;;;;;;2.20;2.00;;;20.40;73.10;;;;;;10459148;28;20213;-65
2021/09/12 00:14:53;;;;;;;1.80;1.70;;;20.50;72.30;;;;;;10459050;28;20209;-65
2021/09/12 00:20:17;;;;;;;2.17;1.90;;;20.50;73.30;;;;;;10426966;28;20193;-65
2021/09/12 00:25:39;;;;;;;2.20;2.00;;;20.40;72.90;;;;;;10459299;28;20198;-65
2021/09/12 00:31:01;;;;;;;2.03;1.93;;;20.50;73.00;;;;;;10457314;28;20220;-64
2021/09/12 00:36:24;;;;;;;1.80;1.70;;;20.40;73.50;;;;;;10457925;28;20224;-65
2021/09/12 00:41:47;;;;;;;1.90;1.80;;;20.40;72.60;;;;;;10458077;28;20197;-65
2021/09/12 00:47:11;;;;;;;2.13;2.03;;;20.50;73.60;;;;;;10458287;28;20384;-65
2021/09/12 00:52:35;;;;;;;1.77;1.67;;;20.40;73.60;;;;;;10457280;28;20670;-66
2021/09/12 00:57:58;;;;;;;2.00;1.90;;;20.50;72.30;;;;;;10455125;28;20701;-66
2021/09/12 01:03:20;;;;;;;2.37;2.17;;;20.40;73.20;;;;;;10454389;28;20220;-66
2021/09/12 01:08:43;;;;;;;1.97;1.87;;;20.40;73.30;;;;;;10456402;28;20213;-66
2021/09/12 01:14:06;;;;;;;1.80;1.70;;;20.50;72.50;;;;;;10458046;28;20228;-64
2021/09/12 01:19:29;;;;;;;1.90;1.80;;;20.40;73.30;;;;;;10457596;28;20197;-65
2021/09/12 01:24:52;;;;;;;2.23;2.03;;;20.50;73.10;;;;;;10456589;28;20236;-65
2021/09/12 01:30:15;;;;;;;2.30;2.10;;;20.50;73.30;;;;;;10443947;28;20213;-65
2021/09/12 01:35:37;;;;;;;2.13;1.93;;;20.40;73.70;;;;;;10457050;28;20705;-66
2021/09/12 01:41:00;;;;;;;2.30;2.10;;;20.40;72.50;;;;;;10455990;28;20193;-65
2021/09/12 01:46:23;;;;;;;2.03;1.93;;;20.50;73.30;;;;;;10453133;28;20274;-65
2021/09/12 01:51:46;;;;;;;2.30;2.10;;;20.40;73.40;;;;;;10456098;28;20232;-65
2021/09/12 01:57:10;;;;;;;2.60;2.40;;;20.40;73.30;;;;;;10455471;28;20295;-65
2021/09/12 02:02:33;;;;;;;1.70;1.60;;;20.40;73.80;;;;;;10430889;28;20201;-65
2021/09/12 02:07:55;;;;;;;2.13;2.00;;;20.40;72.90;;;;;;10456384;28;20244;-65
2021/09/12 02:13:19;;;;;;;2.20;2.00;;;20.40;73.40;;;;;;10454306;28;20240;-66
2021/09/12 02:18:41;;;;;;;2.37;2.17;;;20.40;73.60;;;;;;10454866;28;20574;-65
2021/09/12 02:24:03;;;;;;;2.17;2.00;;;20.40;72.40;;;;;;10484284;22;20472;-65
2021/09/12 02:29:27;;;;;;;2.90;2.30;;;20.40;73.40;;;;;;10474873;28;20235;-64
2021/09/12 02:34:49;;;;;;;2.67;2.17;;;20.40;73.30;;;;;;10473759;28;20193;-65
2021/09/12 02:40:12;;;;;;;2.03;1.93;;;20.40;73.00;;;;;;10493680;28;20553;-65
2021/09/12 02:45:36;;;;;;;2.57;2.37;;;20.40;73.70;;;;;;10493496;28;20196;-64
2021/09/12 02:50:58;;;;;;;2.47;2.27;;;20.40;72.90;;;;;;10492523;28;20220;-65
2021/09/12 02:56:21;;;;;;;2.40;2.20;;;20.40;72.90;;;;;;10493404;28;20204;-65
2021/09/12 03:01:44;;;;;;;2.43;2.20;;;20.40;73.50;;;;;;10491805;28;20208;-65
2021/09/12 03:07:06;;;;;;;2.23;2.03;;;20.40;72.40;;;;;;10492188;28;20189;-64
2021/09/12 03:12:28;;;;;;;2.80;2.60;;;20.40;73.00;;;;;;10492405;28;20209;-64
2021/09/12 03:17:52;;;;;;;2.70;2.37;;;20.40;73.30;;;;;;10492569;28;20218;-64
2021/09/12 03:23:14;;;;;;;2.50;2.30;;;20.50;72.10;;;;;;10491369;28;20722;-64
2021/09/12 03:28:36;;;;;;;2.77;2.57;;;20.40;73.10;;;;;;10492104;28;20208;-64
2021/09/12 03:34:00;;;;;;;2.60;2.40;;;20.40;73.00;;;;;;10490654;28;20204;-64
2021/09/12 03:39:22;;;;;;;2.60;2.40;;;20.40;73.10;;;;;;10489696;28;20211;-64
2021/09/12 03:44:44;;;;;;;3.00;2.70;;;20.40;73.60;;;;;;10491660;28;20200;-63
2021/09/12 03:50:09;;;;;;;3.00;2.70;;;20.40;72.50;;;;;;10489190;28;20707;-64
2021/09/12 03:55:31;;;;;;;3.07;2.80;;;20.50;73.10;;;;;;10491255;28;20219;-65
2021/09/12 04:00:53;;;;;;;3.37;2.80;;;20.40;73.40;;;;;;10489879;28;20729;-65
2021/09/12 04:06:17;;;;;;;3.03;2.73;;;20.40;72.60;;;;;;10491004;28;20193;-63
2021/09/12 04:11:39;;;;;;;2.87;2.67;;;20.40;73.50;;;;;;10489813;28;20216;-65
2021/09/12 04:17:01;;;;;;;2.80;2.60;;;20.40;72.70;;;;;;10490994;28;20196;-64
2021/09/12 04:22:24;;;;;;;3.83;3.53;;;20.40;73.40;;;;;;10490334;28;20753;-64
2021/09/12 04:27:47;;;;;;;3.40;3.03;;;20.40;73.40;;;;;;10487536;28;20200;-63
2021/09/12 04:33:09;;;;;;;2.80;2.60;;;20.40;72.20;;;;;;10478399;28;20216;-62
2021/09/12 04:38:32;;;;;;;3.13;2.83;;;20.40;73.10;;;;;;10490377;28;20211;-65
2021/09/12 04:43:55;;;;;;;3.00;2.80;;;20.40;73.00;;;;;;10489791;28;20223;-64
2021/09/12 04:49:17;;;;;;;3.03;2.83;;;20.40;72.60;;;;;;10489012;28;20227;-64
2021/09/12 04:54:41;;;;;;;3.30;3.00;;;20.40;73.30;;;;;;10496885;28;20208;-65
2021/09/12 05:00:04;;;;;;;3.40;3.10;;;20.40;72.60;;;;;;10496917;28;20217;-64
2021/09/12 05:05:27;;;;;;;3.10;2.90;;;20.40;73.10;;;;;;10496590;28;20773;-65
2021/09/12 05:10:50;;;;;;;3.50;3.20;;;20.40;73.40;;;;;;10493769;28;20220;-65
2021/09/12 05:16:12;;;;;;;3.40;3.10;;;20.40;72.50;;;;;;10494759;28;20663;-65
2021/09/12 05:21:34;;;;;;;3.07;2.80;;;20.40;73.40;;;;;;10495852;28;20220;-65
2021/09/12 05:26:58;;;;;;;3.50;3.20;;;20.40;72.80;;;;;;10494072;28;20205;-65
2021/09/12 05:32:20;;;;;;;3.23;2.93;;;20.40;73.10;;;;;;10488717;28;20227;-65
2021/09/12 05:37:43;;;;;;;3.63;2.97;;;20.40;73.50;;;;;;10492627;28;20197;-64
2021/09/12 05:43:06;;;;;;;3.47;3.17;;;20.40;72.30;;;;;;10493093;28;20215;-64
2021/09/12 05:48:28;;;;;;;3.00;2.80;;;20.40;72.90;;;;;;10491661;28;20215;-64
2021/09/12 05:53:50;;;;;;;3.10;2.90;;;20.40;73.30;;;;;;10492804;28;20196;-64
2021/09/12 05:59:14;;;;;;;3.17;2.87;;;20.40;72.60;;;;;;10493591;28;20557;-63
2021/09/12 06:04:36;;;;;;;3.30;3.00;;;20.40;73.40;;;;;;10492446;28;20599;-64
2021/09/12 06:09:59;;;;;;;3.40;3.10;;;20.40;72.90;;;;;;10490293;28;20908;-64
2021/09/12 06:15:22;;;;;;;3.60;3.30;;;20.40;73.10;;;;;;10488055;28;20667;-64
2021/09/12 06:20:44;;;;;;;3.30;3.00;;;20.40;73.60;;;;;;10491573;28;20215;-64
2021/09/12 06:26:07;;;;;;;3.80;3.40;;;20.40;72.50;;;;;;10491651;28;20211;-63
2021/09/12 06:31:30;;;;;;;2.73;2.53;;;20.40;73.40;;;;;;10454799;28;20229;-64
2021/09/12 06:36:52;;;;;;;3.47;3.17;;;20.40;73.30;;;;;;10463202;28;20199;-65
2021/09/12 06:42:14;;;;;;;3.03;2.73;;;20.40;72.10;;;;;;10492407;28;20208;-64
2021/09/12 06:47:38;;;;;;;3.23;2.93;;;20.40;73.10;;;;;;10493536;28;20192;-64
2021/09/12 06:53:00;;;;;;;2.90;2.70;;;20.40;73.00;;;;;;10491940;28;20266;-64
2021/09/12 06:58:22;;;;;;;3.10;2.90;;;20.40;72.90;;;;;;10452434;28;20189;-63
2021/09/12 07:03:46;;;;;;;3.03;2.83;;;20.40;73.50;;;;;;10490084;28;20197;-64
2021/09/12 07:09:08;;;;;;;2.87;2.67;;;20.40;72.70;;;;;;10458398;28;20915;-62
2021/09/12 07:14:30;;;;;;;3.60;3.30;;;20.40;73.20;;;;;;10485423;28;20203;-62
2021/09/12 07:19:53;;;;;;;3.07;2.77;;;20.40;73.50;;;;;;10459138;28;20407;-62
2021/09/12 07:25:16;;;;;;;2.70;2.50;;;20.40;72.20;;;;;;10491051;28;20208;-63
2021/09/12 07:30:38;;;;;;;2.93;2.73;;;20.40;72.90;;;;;;10459111;28;20248;-61
2021/09/12 07:36:02;;;;;;;2.87;2.67;;;20.40;73.10;;;;;;10477997;28;20207;-65
2021/09/12 07:41:24;;;;;;;2.90;2.67;;;20.40;72.30;;;;;;10462332;28;20738;-61
2021/09/12 07:46:46;;;;;;;3.20;2.90;;;20.40;73.10;;;;;;10487106;28;20197;-63
2021/09/12 07:52:10;;;;;;;3.00;2.80;;;20.40;73.00;;;;;;10490061;28;20223;-62
2021/09/12 07:57:32;;;;;;;3.10;2.80;;;20.40;72.80;;;;;;10490410;28;20200;-63
2021/09/12 08:02:55;;;;;;;3.00;2.80;;;20.40;73.40;;;;;;10490566;28;20224;-63
2021/09/12 08:08:19;;;;;;;2.87;2.67;;;20.40;72.70;;;;;;10491503;28;20197;-63
2021/09/12 08:13:41;;;;;;;3.50;3.20;;;20.40;73.10;;;;;;10490501;28;20268;-61
2021/09/12 08:19:03;;;;;;;3.20;2.90;;;20.40;73.50;;;;;;10490602;28;20212;-61
2021/09/12 08:24:27;;;;;;;3.20;2.90;;;20.40;72.20;;;;;;10510384;22;20211;-66
2021/09/12 08:29:49;;;;;;;3.10;2.90;;;20.40;73.00;;;;;;10498008;28;20226;-66
2021/09/12 08:35:12;;;;;;;2.83;2.63;;;20.40;73.30;;;;;;10497184;28;20215;-65
2021/09/12 08:40:36;;;;;;;3.10;2.90;;;20.40;72.10;;;;;;10535376;28;20204;-65
2021/09/12 08:45:59;;;;;;;3.10;2.90;;;20.40;72.90;;;;;;10540696;28;20222;-65
2021/09/12 08:51:23;;;;;;;3.33;3.10;;;20.40;73.20;;;;;;10577580;28;20512;-66
2021/09/12 08:56:46;;;;;;;3.30;3.00;;;20.60;72.00;;;;;;10519737;28;20227;-65
2021/09/12 09:02:09;;;;;;;3.30;3.00;;;20.50;72.80;;;;;;10561647;28;20193;-65
2021/09/12 09:07:33;;;;;;;3.97;3.60;;;20.40;72.60;;;;;;10539663;28;20238;-64
2021/09/12 09:12:58;;;;;;;4.40;4.00;;;20.40;73.70;;;;;;10549887;28;20624;-64
2021/09/12 09:18:31;;;;;;;4.20;3.83;;;20.40;74.20;;;;;;10542839;28;20227;-65
2021/09/12 09:24:06;;;;;;;5.23;4.47;;;20.50;72.70;;;;;;10552574;28;20379;-65
2021/09/12 09:29:31;;;;;;;5.57;4.67;;;20.50;74.00;;;;;;10557853;28;20211;-64
2021/09/12 09:34:59;;;;;;;5.50;5.00;;;20.50;74.40;;;;;;10539091;28;20215;-64
2021/09/12 09:40:21;;;;;;;5.93;5.33;;;20.50;72.90;;;;;;10556862;28;20186;-64
2021/09/12 09:45:45;;;;;;;6.22;5.63;;;20.60;73.90;;;;;;10531185;28;20425;-65
2021/09/12 09:51:07;;;;;;;6.70;5.20;;;20.60;74.20;;;;;;10539182;28;20219;-64
2021/09/12 09:56:30;;;;;;;4.93;4.50;;;20.70;73.00;;;;;;10537899;28;20216;-65
2021/09/12 10:01:55;;;;;;;5.60;5.10;;;20.70;72.10;;;;;;10537047;28;20184;-66
2021/09/12 10:07:20;;;;;;;6.00;5.40;;;20.60;73.20;;;;;;10537017;28;20219;-67
2021/09/12 10:12:48;;;;;;;5.20;4.70;;;20.60;73.90;;;;;;10538147;28;20344;-67
2021/09/12 10:18:13;;;;;;;6.37;4.90;;;20.60;73.00;;;;;;10516882;28;20208;-66
2021/09/12 10:23:36;;;;;;;6.17;5.17;;;20.60;72.30;;;;;;10536511;28;20191;-67
2021/09/12 10:28:58;;;;;;;5.23;4.73;;;20.60;73.60;;;;;;10535863;28;20216;-67
2021/09/12 10:34:22;;;;;;;5.67;5.03;;;20.50;73.80;;;;;;10549613;28;20199;-67
2021/09/12 10:39:53;;;;;;;7.10;5.47;;;20.50;72.50;;;;;;10518403;28;20564;-67
2021/09/12 10:45:20;;;;;;;7.50;5.17;;;20.50;73.80;;;;;;10537530;28;20224;-67
2021/09/12 10:50:45;;;;;;;5.20;4.63;;;20.50;74.20;;;;;;10536537;28;20759;-67
2021/09/12 10:56:07;;;;;;;4.73;4.33;;;20.50;72.90;;;;;;10495101;28;20688;-67
2021/09/12 11:01:30;;;;;;;5.67;4.97;;;20.60;73.20;;;;;;10495459;28;20216;-67
2021/09/12 11:07:01;;;;;;;4.77;4.27;;;20.50;73.90;;;;;;10520405;28;20230;-63
2021/09/12 11:12:29;;;;;;;4.70;4.00;;;20.50;73.20;;;;;;10534768;28;20208;-65
2021/09/12 11:17:53;;;;;;;5.22;4.72;;;20.50;72.00;;;;;;10532550;28;20921;-65
2021/09/12 11:23:29;;;;;;;4.97;4.57;;;20.90;72.10;;;;;;10519732;28;20284;-64
2021/09/12 11:29:02;;;;;;;7.00;4.13;;;20.70;72.70;;;;;;10546439;28;20567;-64
2021/09/12 11:34:25;;;;;;;5.57;4.67;;;20.60;71.90;;;;;;10530595;28;20448;-65
2021/09/12 11:39:55;;;;;;;4.80;4.30;;;21.10;71.00;;;;;;10533960;28;20192;-65
2021/09/12 11:45:17;;;;;;;4.13;3.73;;;20.80;72.20;;;;;;10534283;28;20234;-64
2021/09/12 11:50:39;;;;;;;4.93;3.90;;;20.70;72.10;;;;;;10533699;28;20211;-65
2021/09/12 11:56:10;;;;;;;4.50;4.10;;;20.60;72.80;;;;;;10532604;28;20219;-65
2021/09/12 12:01:34;;;;;;;4.13;3.73;;;20.60;73.50;;;;;;10531277;28;20199;-65
2021/09/12 12:06:58;;;;;;;3.70;3.40;;;20.50;72.70;;;;;;10529784;28;20228;-65
2021/09/12 12:12:21;;;;;;;5.80;3.60;;;20.60;72.10;;;;;;10531285;28;20273;-65
2021/09/12 12:17:53;;;;;;;5.03;3.80;;;20.60;73.10;;;;;;10530004;28;20215;-65
2021/09/12 12:23:18;;;;;;;4.40;3.57;;;20.50;73.10;;;;;;10531103;28;20203;-65
2021/09/12 12:28:41;;;;;;;4.57;3.73;;;20.50;72.10;;;;;;10531187;28;20238;-65
2021/09/12 12:34:03;;;;;;;3.80;3.50;;;20.50;73.20;;;;;;10536622;28;20208;-65
2021/09/12 12:39:25;;;;;;;4.03;3.23;;;20.50;73.60;;;;;;10567247;28;20195;-65
2021/09/12 12:44:49;;;;;;;3.53;3.20;;;20.50;72.10;;;;;;10533776;28;20218;-65
2021/09/12 12:50:11;;;;;;;4.73;3.20;;;20.50;73.10;;;;;;10531415;28;20219;-64
2021/09/12 12:55:33;;;;;;;3.67;2.83;;;20.50;73.50;;;;;;10512620;28;20220;-65
2021/09/12 13:00:59;;;;;;;3.20;2.90;;;20.50;72.50;;;;;;10515591;28;20214;-65
2021/09/12 13:06:23;;;;;;;3.47;3.00;;;20.50;73.20;;;;;;10500520;28;20695;-65
2021/09/12 13:11:45;;;;;;;3.10;2.80;;;20.50;73.60;;;;;;10533865;28;20227;-65
2021/09/12 13:17:09;;;;;;;3.33;2.83;;;20.50;72.50;;;;;;10540587;28;20227;-65
2021/09/12 13:22:32;;;;;;;3.47;2.63;;;20.50;72.90;;;;;;10494221;28;20199;-65
2021/09/12 13:27:54;;;;;;;3.20;2.90;;;20.40;73.30;;;;;;10530334;28;20700;-65
2021/09/12 13:33:17;;;;;;;4.40;3.00;;;20.50;72.50;;;;;;10497441;28;20216;-65
2021/09/12 13:38:40;;;;;;;3.23;2.70;;;20.50;73.00;;;;;;10497898;28;20216;-65
2021/09/12 13:44:02;;;;;;;2.30;2.10;;;20.50;73.50;;;;;;10508923;28;20196;-65
2021/09/12 13:49:25;;;;;;;3.07;2.60;;;20.50;72.70;;;;;;10534633;28;20206;-65
2021/09/12 13:54:47;;;;;;;3.13;2.33;;;20.40;73.40;;;;;;10539511;28;20224;-65
2021/09/12 14:00:10;;;;;;;3.37;2.03;;;20.50;73.70;;;;;;10538109;28;20191;-65
2021/09/12 14:05:34;;;;;;;2.93;2.43;;;20.50;72.40;;;;;;10537458;28;20226;-65
2021/09/12 14:10:58;;;;;;;3.37;2.07;;;20.50;73.30;;;;;;10538318;28;20695;-65
2021/09/12 14:16:20;;;;;;;1.90;1.80;;;20.40;73.50;;;;;;10538119;28;20401;-64
2021/09/12 14:21:44;;;;;;;2.80;2.27;;;20.50;72.60;;;;;;10534411;28;20553;-64
2021/09/12 14:27:06;;;;;;;2.73;2.03;;;20.50;73.40;;;;;;10536389;22;20231;-65
2021/09/12 14:32:28;;;;;;;2.90;2.30;;;20.50;73.50;;;;;;10493229;28;20216;-65
2021/09/12 14:37:52;;;;;;;2.50;2.00;;;20.50;72.10;;;;;;10492310;28;20291;-65
2021/09/12 14:43:14;;;;;;;2.00;1.80;;;20.50;73.00;;;;;;10463609;28;20193;-62
2021/09/12 14:48:36;;;;;;;1.90;1.73;;;20.50;73.50;;;;;;10466670;28;20220;-65
2021/09/12 14:53:59;;;;;;;2.23;2.03;;;20.50;72.90;;;;;;10494266;28;20216;-65
2021/09/12 14:59:24;;;;;;;3.67;2.03;;;20.40;73.50;;;;;;10495714;28;20217;-65
2021/09/12 15:04:46;;;;;;;1.80;1.70;;;20.40;73.40;;;;;;10495609;28;20215;-65
2021/09/12 15:10:11;;;;;;;2.47;2.00;;;20.40;72.90;;;;;;10494432;28;20211;-64
2021/09/12 15:15:33;;;;;;;2.03;1.83;;;20.40;73.40;;;;;;10494195;28;20216;-65
2021/09/12 15:20:55;;;;;;;1.50;1.40;;;20.40;73.20;;;;;;10493185;28;20192;-65
2021/09/12 15:26:19;;;;;;;1.60;1.50;;;20.50;72.80;;;;;;10507523;28;20600;-63
2021/09/12 15:31:42;;;;;;;2.70;2.07;;;20.40;73.20;;;;;;10534184;28;20212;-63
2021/09/12 15:37:04;;;;;;;2.70;1.70;;;20.40;73.20;;;;;;10535950;28;20750;-62
2021/09/12 15:42:27;;;;;;;1.63;1.50;;;20.40;72.80;;;;;;10532435;28;20531;-62
2021/09/12 15:47:50;;;;;;;1.70;1.50;;;20.40;73.40;;;;;;10530897;28;20234;-62
2021/09/12 15:53:12;;;;;;;1.80;1.57;;;20.40;73.00;;;;;;10531972;28;20223;-63
2021/09/12 15:58:35;;;;;;;1.73;1.63;;;20.40;72.90;;;;;;10533780;28;20207;-63
2021/09/12 16:03:57;;;;;;;1.97;1.70;;;20.40;73.40;;;;;;10532891;28;20203;-63
2021/09/12 16:09:21;;;;;;;1.70;1.60;;;20.40;72.60;;;;;;10534805;28;20221;-63
2021/09/12 16:14:45;;;;;;;1.53;1.43;;;20.40;73.10;;;;;;10534480;28;20738;-63
2021/09/12 16:20:08;;;;;;;1.70;1.60;;;20.40;73.50;;;;;;10532005;28;20581;-63
2021/09/12 16:25:30;;;;;;;1.60;1.50;;;20.40;72.40;;;;;;10533769;28;20215;-63
2021/09/12 16:30:54;;;;;;;1.67;1.40;;;20.50;73.00;;;;;;10532182;28;20216;-62
2021/09/12 16:36:16;;;;;;;1.73;1.47;;;20.40;73.30;;;;;;10533846;28;20216;-63
2021/09/12 16:41:38;;;;;;;2.10;1.50;;;20.40;73.20;;;;;;10524247;28;20223;-63
2021/09/12 16:47:05;;;;;;;1.90;1.43;;;20.40;73.80;;;;;;10534903;28;20241;-62
2021/09/12 16:52:27;;;;;;;1.50;1.40;;;20.40;73.30;;;;;;10542035;28;20207;-63
2021/09/12 16:57:49;;;;;;;1.70;1.60;;;20.40;73.20;;;;;;10536279;28;20220;-62
2021/09/12 17:03:12;;;;;;;1.93;1.50;;;20.40;73.50;;;;;;10537449;28;20210;-62
2021/09/12 17:08:34;;;;;;;1.63;1.40;;;20.40;73.40;;;;;;10537210;28;20427;-62
2021/09/12 17:13:56;;;;;;;1.87;1.70;;;20.50;73.20;;;;;;10535634;28;20208;-63
2021/09/12 17:19:20;;;;;;;2.13;1.50;;;20.40;73.40;;;;;;10535638;28;20219;-63
2021/09/12 17:24:42;;;;;;;2.10;1.80;;;20.50;72.40;;;;;;10537270;28;20618;-62
2021/09/12 17:30:05;;;;;;;1.30;1.20;;;20.50;72.80;;;;;;10540240;28;20192;-63
2021/09/12 17:35:30;;;;;;;1.67;1.50;;;20.40;73.10;;;;;;10539410;28;20231;-63
2021/09/12 17:40:53;;;;;;;1.70;1.50;;;20.40;72.40;;;;;;10536928;28;20183;-63
2021/09/12 17:46:15;;;;;;;3.10;1.40;;;20.40;73.00;;;;;;10538700;28;20215;-62
2021/09/12 17:51:38;;;;;;;1.57;1.43;;;20.40;73.30;;;;;;10535309;28;20254;-64
2021/09/12 17:57:00;;;;;;;1.27;1.17;;;20.40;72.70;;;;;;10537104;28;20212;-63
2021/09/12 18:02:22;;;;;;;2.53;1.47;;;20.40;73.30;;;;;;10531153;28;20188;-63
2021/09/12 18:07:46;;;;;;;1.57;1.43;;;20.40;73.00;;;;;;10535202;28;20564;-63
2021/09/12 18:13:08;;;;;;;2.13;1.60;;;20.40;73.40;;;;;;10535901;28;20684;-63
2021/09/12 18:18:30;;;;;;;1.70;1.30;;;20.40;73.60;;;;;;10533918;28;20203;-63
2021/09/12 18:23:54;;;;;;;1.10;1.00;;;20.40;73.20;;;;;;10536541;28;20667;-62
2021/09/12 18:29:16;;;;;;;1.67;1.20;;;20.40;73.70;;;;;;10533709;28;20219;-63
2021/09/12 18:34:38;;;;;;;1.30;1.20;;;20.40;73.40;;;;;;10533963;28;20219;-63
2021/09/12 18:40:01;;;;;;;1.17;1.07;;;20.40;73.30;;;;;;10531141;28;20200;-62
2021/09/12 18:45:24;;;;;;;1.33;1.20;;;20.40;73.60;;;;;;10533883;28;20679;-63
2021/09/12 18:50:46;;;;;;;2.60;1.17;;;20.40;73.00;;;;;;10534622;28;20680;-63
2021/09/12 18:56:10;;;;;;;1.80;1.17;;;20.40;73.60;;;;;;10537293;28;20225;-63
2021/09/12 19:01:32;;;;;;;1.57;1.00;;;20.40;73.80;;;;;;10532055;28;20580;-63
2021/09/12 19:06:54;;;;;;;1.23;1.13;;;20.40;72.60;;;;;;10529980;28;20218;-63
2021/09/12 19:12:17;;;;;;;1.50;0.97;;;20.40;73.40;;;;;;10534778;28;20228;-63
2021/09/12 19:17:39;;;;;;;2.00;1.10;;;20.40;73.50;;;;;;10533974;28;20211;-65
2021/09/12 19:23:01;;;;;;;1.53;1.00;;;20.40;72.80;;;;;;10535439;28;20180;-63
2021/09/12 19:28:25;;;;;;;0.90;0.90;;;20.40;73.30;;;;;;10534934;28;20219;-63
2021/09/12 19:33:47;;;;;;;1.33;0.70;;;20.40;73.30;;;;;;10534291;28;20222;-64
2021/09/12 19:39:09;;;;;;;1.87;1.23;;;20.40;73.10;;;;;;10533625;28;20223;-62
2021/09/12 19:44:33;;;;;;;1.97;1.03;;;20.40;73.50;;;;;;10534626;28;20230;-62
2021/09/12 19:49:56;;;;;;;1.23;0.90;;;20.40;73.30;;;;;;10533481;28;20196;-63
2021/09/12 19:55:18;;;;;;;1.77;0.97;;;20.40;73.50;;;;;;10534523;28;20581;-61
2021/09/12 20:00:41;;;;;;;1.40;1.00;;;20.30;73.70;;;;;;10534411;28;20703;-62
2021/09/12 20:06:04;;;;;;;1.93;1.10;;;20.40;73.00;;;;;;10534321;28;20216;-63
2021/09/12 20:11:26;;;;;;;2.23;1.00;;;20.30;73.50;;;;;;10533961;28;20208;-63
2021/09/12 20:16:49;;;;;;;1.43;0.80;;;20.30;73.80;;;;;;10506998;28;20704;-63
2021/09/12 20:22:11;;;;;;;1.57;0.93;;;20.30;72.90;;;;;;10499408;28;20187;-63
2021/09/12 20:27:34;;;;;;;1.57;1.00;;;20.40;73.70;;;;;;10542672;22;20251;-69
2021/09/12 20:32:57;;;;;;;1.07;0.87;;;20.30;73.80;;;;;;10499544;28;20731;-70
2021/09/12 20:38:19;;;;;;;1.47;1.03;;;20.40;73.00;;;;;;10460780;28;20597;-70
2021/09/12 20:43:42;;;;;;;1.13;0.90;;;20.40;73.70;;;;;;10491384;28;20195;-70
2021/09/12 20:49:09;;;;;;;2.90;0.80;;;20.30;73.70;;;;;;10499459;28;20578;-70
2021/09/12 20:54:32;;;;;;;1.53;0.70;;;20.40;73.30;;;;;;10498983;28;20303;-70
2021/09/12 20:59:54;;;;;;;0.70;0.70;;;20.30;73.70;;;;;;10458463;28;20662;-69
2021/09/12 21:05:17;;;;;;;2.40;1.07;;;20.30;73.50;;;;;;10458241;28;20220;-69
2021/09/12 21:10:39;;;;;;;2.47;0.93;;;20.40;73.10;;;;;;10457300;28;20577;-69
2021/09/12 21:16:01;;;;;;;1.33;0.97;;;20.30;73.50;;;;;;10457192;28;20216;-69
2021/09/12 21:21:25;;;;;;;1.83;1.20;;;20.30;73.50;;;;;;10465191;28;20200;-69
2021/09/12 21:26:47;;;;;;;0.90;0.80;;;20.30;73.50;;;;;;10481790;28;20225;-69
2021/09/12 21:32:09;;;;;;;2.70;1.10;;;20.30;73.80;;;;;;10487353;28;20216;-69
2021/09/12 21:37:32;;;;;;;2.17;1.20;;;20.30;73.70;;;;;;10497867;28;20239;-69
2021/09/12 21:42:55;;;;;;;1.00;0.90;;;20.30;73.50;;;;;;10496894;28;20196;-69
2021/09/12 21:48:17;;;;;;;1.10;0.90;;;20.30;73.90;;;;;;10496735;28;20208;-68
2021/09/12 21:53:41;;;;;;;1.10;1.00;;;20.30;73.80;;;;;;10494475;28;20217;-69
2021/09/12 21:59:03;;;;;;;1.00;0.90;;;20.30;73.40;;;;;;10497949;28;20299;-70
2021/09/12 22:04:25;;;;;;;1.03;0.93;;;20.30;73.90;;;;;;10496877;28;20203;-69
2021/09/12 22:09:48;;;;;;;1.30;0.90;;;20.30;73.90;;;;;;10497080;28;20707;-72
2021/09/12 22:15:11;;;;;;;2.10;0.93;;;20.30;73.50;;;;;;10497370;28;20634;-70
2021/09/12 22:20:33;;;;;;;1.10;1.00;;;20.30;73.90;;;;;;10495615;28;20196;-68
2021/09/12 22:25:57;;;;;;;1.93;1.20;;;20.20;74.00;;;;;;10476515;28;20228;-69
2021/09/12 22:31:19;;;;;;;1.07;0.97;;;20.30;73.20;;;;;;10496072;28;20207;-69
2021/09/12 22:36:41;;;;;;;1.20;0.90;;;20.30;73.70;;;;;;10495622;28;20235;-69
2021/09/12 22:42:05;;;;;;;1.33;1.07;;;20.20;73.90;;;;;;10494174;28;20199;-69
2021/09/12 22:47:28;;;;;;;1.80;1.10;;;20.20;74.00;;;;;;10493483;28;20593;-69
2021/09/12 22:52:50;;;;;;;1.67;1.13;;;20.30;73.70;;;;;;10492833;28;20290;-68
2021/09/12 22:58:13;;;;;;;1.53;1.00;;;20.20;74.10;;;;;;10495193;28;20689;-69
2021/09/12 23:03:35;;;;;;;1.73;0.90;;;20.20;74.30;;;;;;10465406;28;20212;-69
2021/09/12 23:08:57;;;;;;;1.67;1.00;;;20.20;74.30;;;;;;10453506;28;20228;-69
2021/09/12 23:14:21;;;;;;;2.07;1.10;;;20.20;74.40;;;;;;10454778;28;20223;-67
2021/09/12 23:19:43;;;;;;;1.43;1.03;;;20.20;74.10;;;;;;10462102;28;20216;-69
2021/09/12 23:25:07;;;;;;;1.30;1.10;;;20.20;74.50;;;;;;10492717;28;20192;-69
2021/09/12 23:30:30;;;;;;;1.53;1.10;;;20.20;74.70;;;;;;10484617;28;20285;-69
2021/09/12 23:35:53;;;;;;;1.20;1.10;;;20.10;74.70;;;;;;10492332;28;20247;-69
2021/09/12 23:41:15;;;;;;;1.20;1.10;;;20.10;74.60;;;;;;10492487;28;20562;-69
2021/09/12 23:46:38;;;;;;;1.30;1.10;;;20.10;74.60;;;;;;10493039;28;20728;-69
2021/09/12 23:52:00;;;;;;;2.30;1.13;;;20.10;74.50;;;;;;10492473;28;20212;-69
2021/09/12 23:57:22;;;;;;;1.80;0.93;;;20.10;74.40;;;;;;10492821;28;20212;-68
